createdAt,value
2024-02-28T00:00:32.485Z,100405.64
2024-02-28T00:03:20.652Z,100403.46
2024-02-28T00:05:49.285Z,100406.69
2024-02-28T00:08:18.155Z,100408.60
2024-02-28T00:10:46.299Z,100408.89
2024-02-28T00:13:15.743Z,100416.58
2024-02-28T00:15:43.639Z,100418.91
2024-02-28T00:18:11.775Z,100418.45
2024-02-28T00:20:39.680Z,100420.00
2024-02-28T00:23:07.656Z,100423.66
2024-02-28T00:25:36.197Z,100426.27
2024-02-28T00:28:04.490Z,100421.79
2024-02-28T00:30:33.983Z,100421.27
2024-02-28T00:33:02.287Z,100415.12
2024-02-28T00:35:34.403Z,100414.66
2024-02-28T00:38:02.592Z,100418.81
2024-02-28T00:40:30.681Z,100421.32
2024-02-28T00:42:59.055Z,100423.16
2024-02-28T00:45:27.034Z,100422.92
2024-02-28T00:47:56.416Z,100426.13
2024-02-28T00:50:24.442Z,100425.86
2024-02-28T00:52:52.278Z,100426.95
2024-02-28T00:55:20.388Z,100427.90
2024-02-28T00:57:48.384Z,100426.66
2024-02-28T01:00:16.732Z,100428.21
2024-02-28T01:02:44.738Z,100430.41
2024-02-28T01:05:12.676Z,100433.06
2024-02-28T01:07:40.679Z,100434.77
2024-02-28T01:10:08.795Z,100437.52
2024-02-28T01:12:36.844Z,100435.02
2024-02-28T01:15:05.217Z,100439.77
2024-02-28T01:17:33.180Z,100443.66
2024-02-28T01:20:01.041Z,100439.77
2024-02-28T01:22:28.941Z,100439.71
2024-02-28T01:24:56.936Z,100445.03
2024-02-28T01:27:24.847Z,100449.13
2024-02-28T01:29:54.777Z,100440.20
2024-02-28T01:32:22.718Z,100434.34
2024-02-28T01:34:50.576Z,100434.41
2024-02-28T01:37:19.482Z,100443.96
2024-02-28T01:39:47.398Z,100451.88
2024-02-28T01:42:16.407Z,100449.06
2024-02-28T01:44:48.954Z,100444.25
2024-02-28T01:47:16.840Z,100440.27
2024-02-28T01:49:45.065Z,100440.19
2024-02-28T01:52:13.386Z,100434.25
2024-02-28T01:54:41.319Z,100433.69
2024-02-28T01:57:09.261Z,100436.41
2024-02-28T01:59:37.210Z,100432.04
2024-02-28T02:02:05.284Z,100439.54
2024-02-28T02:04:33.540Z,100439.15
2024-02-28T02:07:01.559Z,100440.30
2024-02-28T02:09:29.609Z,100449.27
2024-02-28T02:11:57.676Z,100455.77
2024-02-28T02:14:25.700Z,100455.31
2024-02-28T02:16:53.534Z,100454.52
2024-02-28T02:19:22.232Z,100451.06
2024-02-28T02:21:52.033Z,100451.64
2024-02-28T02:24:20.186Z,100449.27
2024-02-28T02:26:48.275Z,100442.60
2024-02-28T02:29:16.209Z,100435.91
2024-02-28T02:31:44.126Z,100441.35
2024-02-28T02:34:12.083Z,100429.77
2024-02-28T02:36:40.099Z,100435.90
2024-02-28T02:39:10.718Z,100434.41
2024-02-28T02:41:38.713Z,100430.31
2024-02-28T02:44:06.816Z,100424.10
2024-02-28T02:46:34.831Z,100431.55
2024-02-28T02:49:03.512Z,100432.71
2024-02-28T02:51:31.493Z,100429.94
2024-02-28T02:53:59.696Z,100431.25
2024-02-28T02:56:27.648Z,100436.27
2024-02-28T02:58:55.692Z,100444.15
2024-02-28T03:01:23.643Z,100431.54
2024-02-28T03:03:51.906Z,100428.14
2024-02-28T03:06:20.059Z,100424.89
2024-02-28T03:08:48.106Z,100432.15
2024-02-28T03:11:16.407Z,100432.86
2024-02-28T03:13:44.357Z,100429.06
2024-02-28T03:16:12.589Z,100436.69
2024-02-28T03:18:40.684Z,100438.06
2024-02-28T03:21:08.620Z,100438.56
2024-02-28T03:23:37.372Z,100440.02
2024-02-28T03:26:05.948Z,100442.50
2024-02-28T03:28:33.962Z,100444.50
2024-02-28T03:31:02.010Z,100440.82
2024-02-28T03:33:32.902Z,100440.47
2024-02-28T03:36:01.150Z,100434.77
2024-02-28T03:38:29.136Z,100436.00
2024-02-28T03:40:57.260Z,100434.58
2024-02-28T03:43:25.254Z,100432.16
2024-02-28T03:45:53.764Z,100435.02
2024-02-28T03:48:22.022Z,100434.73
2024-02-28T03:50:50.090Z,100432.23
2024-02-28T03:53:18.593Z,100428.44
2024-02-28T03:55:46.416Z,100429.25
2024-02-28T03:58:14.509Z,100421.06
2024-02-28T04:00:45.705Z,100418.09
2024-02-28T04:03:15.337Z,100415.16
2024-02-28T04:05:43.450Z,100413.09
2024-02-28T04:08:11.546Z,100412.56
2024-02-28T04:10:39.547Z,100407.77
2024-02-28T04:13:07.554Z,100414.46
2024-02-28T04:15:35.696Z,100405.45
2024-02-28T04:18:04.787Z,100408.41
2024-02-28T04:20:32.869Z,100409.91
2024-02-28T04:23:00.853Z,100410.19
2024-02-28T04:25:28.690Z,100416.27
2024-02-28T04:27:58.277Z,100418.48
2024-02-28T04:30:26.494Z,100430.27
2024-02-28T04:32:55.066Z,100436.59
2024-02-28T04:35:23.027Z,100439.73
2024-02-28T04:37:51.433Z,100444.17
2024-02-28T04:40:19.400Z,100443.41
2024-02-28T04:42:47.444Z,100446.91
2024-02-28T04:45:15.458Z,100446.84
2024-02-28T04:47:44.774Z,100444.19
2024-02-28T04:50:13.714Z,100447.14
2024-02-28T04:52:41.894Z,100446.98
2024-02-28T04:55:10.055Z,100448.75
2024-02-28T04:57:38.626Z,100448.96
2024-02-28T05:00:09.043Z,100450.86
2024-02-28T05:02:37.191Z,100447.50
2024-02-28T05:05:05.497Z,100451.21
2024-02-28T05:07:33.441Z,100452.16
2024-02-28T05:10:01.372Z,100463.63
2024-02-28T05:12:29.468Z,100460.94
2024-02-28T05:14:57.389Z,100456.14
2024-02-28T05:17:25.548Z,100461.08
2024-02-28T05:19:53.537Z,100463.48
2024-02-28T05:22:21.408Z,100461.92
2024-02-28T05:24:49.306Z,100470.48
2024-02-28T05:27:17.306Z,100467.01
2024-02-28T05:29:45.272Z,100478.06
2024-02-28T05:32:13.476Z,100477.02
2024-02-28T05:34:42.369Z,100480.61
2024-02-28T05:37:10.385Z,100480.95
2024-02-28T05:39:38.528Z,100485.14
2024-02-28T05:42:06.560Z,100483.06
2024-02-28T05:44:35.574Z,100486.75
2024-02-28T05:47:03.741Z,100487.14
2024-02-28T05:49:31.679Z,100490.71
2024-02-28T05:51:59.708Z,100495.81
2024-02-28T05:54:30.591Z,100494.05
2024-02-28T05:56:58.946Z,100491.25
2024-02-28T05:59:27.473Z,100493.50
2024-02-28T06:01:55.732Z,100494.73
2024-02-28T06:04:25.018Z,100498.77
2024-02-28T06:06:53.075Z,100504.59
2024-02-28T06:09:21.101Z,100508.11
2024-02-28T06:11:49.107Z,100511.42
2024-02-28T06:14:17.098Z,100511.70
2024-02-28T06:16:48.021Z,100511.92
2024-02-28T06:19:16.000Z,100514.35
2024-02-28T06:21:44.047Z,100515.35
2024-02-28T06:24:12.076Z,100522.36
2024-02-28T06:26:40.066Z,100520.20
2024-02-28T06:29:08.886Z,100517.30
2024-02-28T06:31:37.066Z,100520.55
2024-02-28T06:34:05.240Z,100525.67
2024-02-28T06:36:33.388Z,100526.95
2024-02-28T06:39:01.272Z,100538.21
2024-02-28T06:41:29.167Z,100532.55
2024-02-28T06:43:57.410Z,100534.65
2024-02-28T06:46:26.133Z,100538.59
2024-02-28T06:48:54.344Z,100546.23
2024-02-28T06:51:22.413Z,100545.39
2024-02-28T06:53:50.508Z,100552.92
2024-02-28T06:56:18.540Z,100552.55
2024-02-28T06:58:46.365Z,100551.31
2024-02-28T07:01:14.455Z,100554.29
2024-02-28T07:03:42.459Z,100547.63
2024-02-28T07:06:10.511Z,100544.86
2024-02-28T07:08:38.461Z,100545.11
2024-02-28T07:11:06.406Z,100553.48
2024-02-28T07:13:34.439Z,100555.41
2024-02-28T07:16:02.598Z,100556.96
2024-02-28T07:18:31.360Z,100557.10
2024-02-28T07:20:59.621Z,100557.20
2024-02-28T07:23:27.627Z,100557.89
2024-02-28T07:25:59.861Z,100559.71
2024-02-28T07:28:32.298Z,100563.70
2024-02-28T07:31:00.228Z,100562.48
2024-02-28T07:33:28.186Z,100559.38
2024-02-28T07:35:58.179Z,100563.80
2024-02-28T07:38:28.939Z,100561.69
2024-02-28T07:40:56.982Z,100561.91
2024-02-28T07:43:24.892Z,100563.33
2024-02-28T07:45:52.861Z,100565.00
2024-02-28T07:48:21.148Z,100564.27
2024-02-28T07:50:49.164Z,100566.52
2024-02-28T07:53:18.313Z,100568.77
2024-02-28T07:55:46.423Z,100570.88
2024-02-28T07:58:15.962Z,100572.56
2024-02-28T08:00:45.154Z,100571.36
2024-02-28T08:03:13.261Z,100577.27
2024-02-28T08:05:41.851Z,100579.46
2024-02-28T08:08:09.830Z,100580.34
2024-02-28T08:10:40.731Z,100580.11
2024-02-28T08:13:11.359Z,100585.21
2024-02-28T08:15:39.411Z,100588.31
2024-02-28T08:18:07.617Z,100590.05
2024-02-28T08:20:35.684Z,100591.69
2024-02-28T08:23:04.733Z,100592.46
2024-02-28T08:25:33.032Z,100590.91
2024-02-28T08:28:01.172Z,100592.44
2024-02-28T08:30:29.281Z,100587.44
2024-02-28T08:32:57.553Z,100590.89
2024-02-28T08:35:25.507Z,100598.44
2024-02-28T08:37:54.147Z,100593.09
2024-02-28T08:40:22.100Z,100588.10
2024-02-28T08:42:54.310Z,100589.86
2024-02-28T08:45:23.918Z,100597.61
2024-02-28T08:47:51.844Z,100593.09
2024-02-28T08:50:19.805Z,100592.86
2024-02-28T08:52:47.830Z,100597.58
2024-02-28T08:55:19.776Z,100590.53
2024-02-28T08:57:47.781Z,100591.40
2024-02-28T09:00:16.630Z,100588.06
2024-02-28T09:02:45.504Z,100588.79
2024-02-28T09:05:13.698Z,100592.09
2024-02-28T09:07:41.614Z,100595.86
2024-02-28T09:10:10.133Z,100594.31
2024-02-28T09:12:38.055Z,100592.88
2024-02-28T09:15:06.642Z,100594.39
2024-02-28T09:17:34.745Z,100592.80
2024-02-28T09:20:02.804Z,100594.89
2024-02-28T09:22:30.809Z,100596.21
2024-02-28T09:24:58.902Z,100596.42
2024-02-28T09:27:27.292Z,100600.98
2024-02-28T09:29:55.430Z,100596.27
2024-02-28T09:32:24.384Z,100597.02
2024-02-28T09:34:52.276Z,100599.98
2024-02-28T09:37:22.278Z,100602.09
2024-02-28T09:39:50.309Z,100601.55
2024-02-28T09:42:18.495Z,100604.67
2024-02-28T09:44:46.622Z,100607.37
2024-02-28T09:47:14.595Z,100605.70
2024-02-28T09:49:45.961Z,100607.70
2024-02-28T09:52:13.974Z,100612.23
2024-02-28T09:54:43.353Z,100612.23
2024-02-28T09:57:12.295Z,100615.95
2024-02-28T09:59:48.390Z,100614.44
2024-02-28T10:02:22.748Z,100619.74
2024-02-28T10:04:50.654Z,100618.67
2024-02-28T10:07:19.033Z,100622.09
2024-02-28T10:09:47.763Z,100620.96
2024-02-28T10:12:15.853Z,100624.06
2024-02-28T10:14:43.910Z,100624.39
2024-02-28T10:17:11.946Z,100625.86
2024-02-28T10:19:40.085Z,100630.89
2024-02-28T10:22:08.161Z,100633.98
2024-02-28T10:24:36.342Z,100631.41
2024-02-28T10:27:04.741Z,100637.56
2024-02-28T10:29:34.107Z,100635.05
2024-02-28T10:32:04.067Z,100637.05
2024-02-28T10:34:32.124Z,100636.02
2024-02-28T10:37:00.079Z,100633.33
2024-02-28T10:39:28.249Z,100632.48
2024-02-28T10:41:56.165Z,100633.79
2024-02-28T10:44:24.216Z,100632.52
2024-02-28T10:46:52.640Z,100639.92
2024-02-28T10:49:20.757Z,100636.11
2024-02-28T10:51:50.081Z,100640.15
2024-02-28T10:54:18.122Z,100636.57
2024-02-28T10:56:46.188Z,100640.16
2024-02-28T10:59:14.540Z,100646.02
2024-02-28T11:01:43.855Z,100644.25
2024-02-28T11:04:13.084Z,100645.73
2024-02-28T11:06:54.973Z,100646.52
2024-02-28T11:09:24.273Z,100644.27
2024-02-28T11:11:52.916Z,100648.30
2024-02-28T11:14:23.671Z,100640.52
2024-02-28T11:17:02.646Z,100641.02
2024-02-28T11:19:32.254Z,100643.63
2024-02-28T11:22:01.214Z,100638.04
2024-02-28T11:24:32.702Z,100643.33
2024-02-28T11:27:00.833Z,100642.23
2024-02-28T11:29:30.077Z,100644.10
2024-02-28T11:31:58.765Z,100650.36
2024-02-28T11:34:27.253Z,100654.75
2024-02-28T11:36:57.571Z,100653.64
2024-02-28T11:39:26.524Z,100659.83
2024-02-28T11:41:54.948Z,100659.11
2024-02-28T11:44:23.039Z,100663.14
2024-02-28T11:46:51.088Z,100664.80
2024-02-28T11:49:19.075Z,100662.34
2024-02-28T11:51:47.353Z,100660.52
2024-02-28T11:54:15.790Z,100664.44
2024-02-28T11:56:43.777Z,100662.09
2024-02-28T11:59:14.708Z,100661.38
2024-02-28T12:01:45.581Z,100658.66
2024-02-28T12:04:14.138Z,100655.12
2024-02-28T12:06:42.308Z,100664.04
2024-02-28T12:09:16.299Z,100656.92
2024-02-28T12:11:46.970Z,100661.20
2024-02-28T12:14:15.055Z,100665.84
2024-02-28T12:16:43.445Z,100666.49
2024-02-28T12:19:12.150Z,100669.59
2024-02-28T12:21:40.827Z,100668.13
2024-02-28T12:24:10.198Z,100669.18
2024-02-28T12:26:39.059Z,100667.30
2024-02-28T12:29:07.369Z,100672.96
2024-02-28T12:31:35.316Z,100671.41
2024-02-28T12:34:05.435Z,100672.31
2024-02-28T12:36:33.961Z,100670.54
2024-02-28T12:39:02.193Z,100670.54
2024-02-28T12:41:30.437Z,100674.96
2024-02-28T12:43:58.434Z,100678.33
2024-02-28T12:46:26.306Z,100681.35
2024-02-28T12:48:54.350Z,100682.66
2024-02-28T12:51:47.253Z,100680.21
2024-02-28T12:54:15.884Z,100683.23
2024-02-28T12:56:46.874Z,100684.21
2024-02-28T12:59:15.037Z,100683.95
2024-02-28T13:01:44.168Z,100687.23
2024-02-28T13:04:12.535Z,100682.33
2024-02-28T13:06:43.501Z,100688.27
2024-02-28T13:09:14.170Z,100690.48
2024-02-28T13:11:42.514Z,100691.37
2024-02-28T13:14:12.006Z,100692.13
2024-02-28T13:16:40.122Z,100695.91
2024-02-28T13:19:08.106Z,100693.66
2024-02-28T13:21:36.267Z,100691.61
2024-02-28T13:24:05.579Z,100693.86
2024-02-28T13:26:33.587Z,100695.95
2024-02-28T13:29:01.603Z,100693.63
2024-02-28T13:31:29.501Z,100697.52
2024-02-28T13:33:57.515Z,100700.30
2024-02-28T13:36:26.146Z,100703.77
2024-02-28T13:38:54.309Z,100706.28
2024-02-28T13:41:22.253Z,100705.27
2024-02-28T13:43:50.107Z,100700.41
2024-02-28T13:46:20.623Z,100702.77
2024-02-28T13:48:49.108Z,100698.84
2024-02-28T13:51:17.809Z,100702.20
2024-02-28T13:53:45.703Z,100703.13
2024-02-28T13:56:13.575Z,100708.24
2024-02-28T13:58:46.163Z,100705.30
2024-02-28T14:01:21.213Z,100706.77
2024-02-28T14:03:49.491Z,100706.69
2024-02-28T14:06:17.477Z,100701.05
2024-02-28T14:08:45.503Z,100707.80
2024-02-28T14:11:14.038Z,100708.65
2024-02-28T14:13:42.547Z,100707.26
2024-02-28T14:16:10.780Z,100716.52
2024-02-28T14:18:39.356Z,100714.80
2024-02-28T14:21:08.405Z,100725.10
2024-02-28T14:23:37.238Z,100731.63
2024-02-28T14:26:05.258Z,100732.23
2024-02-28T14:28:33.180Z,100733.88
2024-02-28T14:31:01.858Z,100737.86
2024-02-28T14:33:30.276Z,100729.00
2024-02-28T14:35:59.285Z,100726.64
2024-02-28T14:38:27.275Z,100727.15
2024-02-28T14:40:55.260Z,100739.27
2024-02-28T14:43:23.207Z,100738.91
2024-02-28T14:45:51.277Z,100739.23
2024-02-28T14:48:19.377Z,100746.91
2024-02-28T14:50:47.356Z,100749.38
2024-02-28T14:53:17.682Z,100748.38
2024-02-28T14:55:48.394Z,100757.36
2024-02-28T14:58:16.634Z,100755.11
2024-02-28T15:00:48.111Z,100762.98
2024-02-28T15:03:16.834Z,100761.70
2024-02-28T15:05:46.477Z,100762.48
2024-02-28T15:08:14.618Z,100764.42
2024-02-28T15:10:42.603Z,100764.86
2024-02-28T15:13:10.921Z,100764.06
2024-02-28T15:15:42.459Z,100771.19
2024-02-28T15:18:11.596Z,100765.73
2024-02-28T15:20:40.104Z,100763.83
2024-02-28T15:23:08.113Z,100765.73
2024-02-28T15:25:35.973Z,100768.30
2024-02-28T15:28:04.261Z,100767.60
2024-02-28T15:30:32.460Z,100772.09
2024-02-28T15:33:00.596Z,100770.50
2024-02-28T15:35:28.618Z,100775.97
2024-02-28T15:37:56.527Z,100782.90
2024-02-28T15:40:24.618Z,100785.80
2024-02-28T15:42:52.807Z,100784.39
2024-02-28T15:45:20.690Z,100786.15
2024-02-28T15:47:49.059Z,100787.95
2024-02-28T15:50:17.234Z,100783.89
2024-02-28T15:52:45.986Z,100782.94
2024-02-28T15:55:14.672Z,100783.63
2024-02-28T15:57:42.670Z,100790.25
2024-02-28T16:00:11.400Z,100794.90
2024-02-28T16:02:42.227Z,100799.56
2024-02-28T16:05:10.288Z,100800.31
2024-02-28T16:07:38.366Z,100800.73
2024-02-28T16:10:06.664Z,100798.35
2024-02-28T16:12:34.726Z,100800.02
2024-02-28T16:15:04.161Z,100802.64
2024-02-28T16:17:33.384Z,100813.28
2024-02-28T16:20:03.755Z,100815.44
2024-02-28T16:22:31.962Z,100817.80
2024-02-28T16:24:59.863Z,100818.00
2024-02-28T16:27:28.469Z,100822.13
2024-02-28T16:29:56.478Z,100823.16
2024-02-28T16:32:24.362Z,100821.02
2024-02-28T16:34:52.285Z,100823.09
2024-02-28T16:37:20.347Z,100827.60
2024-02-28T16:39:48.433Z,100831.34
2024-02-28T16:42:16.531Z,100832.27
2024-02-28T16:44:44.533Z,100833.02
2024-02-28T16:47:13.721Z,100831.88
2024-02-28T16:49:41.588Z,100831.36
2024-02-28T16:52:11.710Z,100828.57
2024-02-28T16:54:39.730Z,100832.44
2024-02-28T16:57:08.350Z,100830.19
2024-02-28T16:59:36.818Z,100834.27
2024-02-28T17:02:05.788Z,100840.33
2024-02-28T17:04:35.731Z,100840.33
2024-02-28T17:07:04.854Z,100838.00
2024-02-28T17:09:33.067Z,100839.16
2024-02-28T17:12:01.104Z,100838.33
2024-02-28T17:14:29.105Z,100841.45
2024-02-28T17:16:57.267Z,100845.20
2024-02-28T17:19:26.128Z,100844.39
2024-02-28T17:21:54.118Z,100846.04
2024-02-28T17:24:22.172Z,100841.46
2024-02-28T17:26:50.170Z,100846.69
2024-02-28T17:29:18.117Z,100844.79
2024-02-28T17:31:46.129Z,100844.02
2024-02-28T17:34:15.408Z,100852.39
2024-02-28T17:36:43.770Z,100854.91
2024-02-28T17:39:11.928Z,100852.04
2024-02-28T17:41:39.968Z,100850.27
2024-02-28T17:44:08.298Z,100856.96
2024-02-28T17:46:36.237Z,100858.09
2024-02-28T17:49:07.674Z,100858.73
2024-02-28T17:51:37.686Z,100859.45
2024-02-28T17:54:06.807Z,100865.34
2024-02-28T17:56:34.900Z,100865.33
2024-02-28T17:59:02.856Z,100869.72
2024-02-28T18:01:31.064Z,100872.70
2024-02-28T18:03:59.820Z,100869.21
2024-02-28T18:06:27.888Z,100865.38
2024-02-28T18:08:56.398Z,100866.39
2024-02-28T18:11:27.446Z,100872.21
2024-02-28T18:13:55.429Z,100874.55
2024-02-28T18:16:23.712Z,100875.55
2024-02-28T18:18:51.820Z,100878.88
2024-02-28T18:21:20.128Z,100882.11
2024-02-28T18:23:48.488Z,100878.36
2024-02-28T18:26:19.476Z,100875.83
2024-02-28T18:28:47.993Z,100878.39
2024-02-28T18:31:15.941Z,100880.35
2024-02-28T18:33:44.500Z,100880.52
2024-02-28T18:36:12.859Z,100884.08
2024-02-28T18:38:41.334Z,100888.67
2024-02-28T18:41:09.619Z,100893.78
2024-02-28T18:43:38.696Z,100895.20
2024-02-28T18:46:06.862Z,100895.26
2024-02-28T18:48:35.621Z,100899.85
2024-02-28T18:51:04.132Z,100907.95
2024-02-28T18:53:32.190Z,100910.70
2024-02-28T18:56:02.084Z,100914.61
2024-02-28T18:58:30.162Z,100919.93
2024-02-28T19:00:58.379Z,100923.08
2024-02-28T19:03:26.839Z,100925.20
2024-02-28T19:05:54.826Z,100925.73
2024-02-28T19:08:22.739Z,100922.00
2024-02-28T19:10:50.889Z,100922.46
2024-02-28T19:13:19.135Z,100921.89
2024-02-28T19:15:47.089Z,100923.17
2024-02-28T19:18:15.178Z,100922.34
2024-02-28T19:20:43.068Z,100921.27
2024-02-28T19:23:12.833Z,100921.29
2024-02-28T19:25:42.810Z,100924.35
2024-02-28T19:28:12.043Z,100927.77
2024-02-28T19:30:40.380Z,100933.24
2024-02-28T19:33:08.824Z,100931.09
2024-02-28T19:35:38.481Z,100926.77
2024-02-28T19:38:06.985Z,100933.63
2024-02-28T19:40:34.906Z,100935.31
2024-02-28T19:43:03.249Z,100940.70
2024-02-28T19:45:31.332Z,100943.77
2024-02-28T19:47:59.275Z,100943.27
2024-02-28T19:50:27.261Z,100938.24
2024-02-28T19:52:55.220Z,100940.26
2024-02-28T19:55:23.455Z,100943.73
2024-02-28T19:57:51.334Z,100941.02
2024-02-28T20:00:19.891Z,100945.46
2024-02-28T20:02:49.209Z,100948.85
2024-02-28T20:05:20.299Z,100945.89
2024-02-28T20:07:50.111Z,100946.08
2024-02-28T20:10:18.717Z,100945.54
2024-02-28T20:12:46.989Z,100949.97
2024-02-28T20:15:15.213Z,100950.17
2024-02-28T20:17:43.128Z,100948.68
2024-02-28T20:20:11.957Z,100952.88
2024-02-28T20:22:40.810Z,100950.98
2024-02-28T20:25:09.242Z,100951.30
2024-02-28T20:27:37.652Z,100950.06
2024-02-28T20:30:07.252Z,100956.61
2024-02-28T20:32:36.339Z,100959.05
2024-02-28T20:35:04.976Z,100961.27
2024-02-28T20:37:33.043Z,100967.59
2024-02-28T20:40:01.285Z,100973.52
2024-02-28T20:42:29.614Z,100976.20
2024-02-28T20:44:57.867Z,100981.84
2024-02-28T20:47:26.151Z,100983.41
2024-02-28T20:49:54.487Z,100981.77
2024-02-28T20:52:24.881Z,100979.49
2024-02-28T20:54:55.958Z,100982.73
2024-02-28T20:57:25.334Z,100987.58
2024-02-28T20:59:53.555Z,100993.96
2024-02-28T21:02:22.876Z,100996.08
2024-02-28T21:04:50.816Z,100998.48
2024-02-28T21:07:18.850Z,101006.00
2024-02-28T21:09:48.964Z,101010.52
2024-02-28T21:12:18.828Z,101014.34
2024-02-28T21:14:47.084Z,101019.49
2024-02-28T21:17:15.034Z,101020.54
2024-02-28T21:19:43.236Z,101024.27
2024-02-28T21:22:11.173Z,101024.20
2024-02-28T21:24:39.784Z,101022.92
2024-02-28T21:27:07.779Z,101024.71
2024-02-28T21:29:35.720Z,101025.04
2024-02-28T21:32:03.801Z,101023.90
2024-02-28T21:34:31.750Z,101021.23
2024-02-28T21:36:59.810Z,101025.69
2024-02-28T21:39:28.263Z,101028.02
2024-02-28T21:41:56.270Z,101023.09
2024-02-28T21:44:26.553Z,101019.17
2024-02-28T21:46:55.329Z,101024.07
2024-02-28T21:49:23.390Z,101030.89
2024-02-28T21:51:51.352Z,101032.18
2024-02-28T21:54:19.283Z,101033.04
2024-02-28T21:56:47.269Z,101037.98
2024-02-28T21:59:15.187Z,101039.63
2024-02-28T22:01:43.220Z,101041.80
2024-02-28T22:04:11.961Z,101041.10
2024-02-28T22:06:40.177Z,101036.48
2024-02-28T22:09:08.245Z,101035.40
2024-02-28T22:11:36.314Z,101032.34
2024-02-28T22:14:04.235Z,101033.86
2024-02-28T22:16:32.279Z,101034.29
2024-02-28T22:19:00.812Z,101035.42
2024-02-28T22:21:28.878Z,101039.56
2024-02-28T22:23:56.983Z,101039.45
2024-02-28T22:26:24.914Z,101043.38
2024-02-28T22:28:53.001Z,101046.33
2024-02-28T22:31:21.061Z,101050.67
2024-02-28T22:33:49.001Z,101057.41
2024-02-28T22:36:17.404Z,101057.58
2024-02-28T22:38:45.716Z,101052.96
2024-02-28T22:41:13.621Z,101055.77
2024-02-28T22:43:41.757Z,101053.09
2024-02-28T22:46:10.028Z,101054.96
2024-02-28T22:48:38.165Z,101056.55
2024-02-28T22:51:06.235Z,101061.90
2024-02-28T22:53:34.118Z,101061.52
2024-02-28T22:56:02.368Z,101063.50
2024-02-28T22:58:30.194Z,101063.58
2024-02-28T23:00:58.294Z,101066.02
2024-02-28T23:03:26.493Z,101066.39
2024-02-28T23:05:55.045Z,101071.45
2024-02-28T23:08:23.159Z,101071.33
2024-02-28T23:10:51.306Z,101072.73
2024-02-28T23:13:19.421Z,101077.14
2024-02-28T23:15:47.605Z,101077.96
2024-02-28T23:18:16.283Z,101075.81
2024-02-28T23:20:45.935Z,101071.63
2024-02-28T23:23:13.819Z,101071.66
2024-02-28T23:25:42.210Z,101074.40
2024-02-28T23:28:10.402Z,101073.23
2024-02-28T23:30:38.508Z,101074.06
2024-02-28T23:33:08.136Z,101072.77
2024-02-28T23:35:36.348Z,101077.54
2024-02-28T23:38:06.794Z,101074.39
2024-02-28T23:40:34.986Z,101073.39
2024-02-28T23:43:03.294Z,101079.33
2024-02-28T23:45:31.476Z,101076.98
2024-02-28T23:47:59.554Z,101076.65
2024-02-28T23:50:28.603Z,101071.27
2024-02-28T23:52:56.555Z,101072.90
2024-02-28T23:55:24.470Z,101077.18
2024-02-28T23:57:52.626Z,101076.38
